TimeEDT,TemperatureF,Dew PointF,Humidity,Sea Level PressureIn,VisibilityMPH,Wind Direction,Wind SpeedMPH,Gust SpeedMPH,PrecipitationIn,Events,Conditions,WindDirDegrees,DateUTC
12:15 AM,66.2,57.2,73,30.05,10.0,Calm,Calm,-,N/A,,Clear,0,2013-07-13 04:15:00
12:35 AM,66.2,55.4,68,30.05,10.0,Calm,Calm,-,N/A,,Clear,0,2013-07-13 04:35:00
12:55 AM,64.4,57.2,77,30.05,10.0,Calm,Calm,-,N/A,,Clear,0,2013-07-13 04:55:00
1:15 AM,64.4,57.2,77,30.05,10.0,Calm,Calm,-,N/A,,Clear,0,2013-07-13 05:15:00
1:35 AM,62.6,57.2,82,30.05,10.0,Calm,Calm,-,N/A,,Clear,0,2013-07-13 05:35:00
1:55 AM,62.6,57.2,82,30.05,10.0,Calm,Calm,-,N/A,,Clear,0,2013-07-13 05:55:00
2:15 AM,60.8,57.2,88,30.05,10.0,Calm,Calm,-,N/A,,Clear,0,2013-07-13 06:15:00
2:35 AM,60.8,59.0,94,30.04,10.0,East,3.5,-,N/A,,Clear,80,2013-07-13 06:35:00
2:55 AM,62.6,57.2,82,30.04,10.0,Calm,Calm,-,N/A,,Clear,0,2013-07-13 06:55:00
3:15 AM,62.6,57.2,82,30.04,10.0,Calm,Calm,-,N/A,,Clear,0,2013-07-13 07:15:00
3:35 AM,62.6,57.2,82,30.03,10.0,East,4.6,-,N/A,,Clear,100,2013-07-13 07:35:00
3:55 AM,62.6,57.2,82,30.03,10.0,ENE,4.6,-,N/A,,Clear,60,2013-07-13 07:55:00
4:15 AM,62.6,57.2,82,30.03,10.0,ENE,4.6,-,N/A,,Clear,60,2013-07-13 08:15:00
4:35 AM,60.8,57.2,88,30.04,10.0,East,3.5,-,N/A,,Clear,80,2013-07-13 08:35:00
4:55 AM,60.8,57.2,88,30.04,10.0,Calm,Calm,-,N/A,,Clear,0,2013-07-13 08:55:00
5:15 AM,60.8,57.2,88,30.03,10.0,Calm,Calm,-,N/A,,Clear,0,2013-07-13 09:15:00
5:35 AM,59.0,57.2,94,30.04,10.0,Calm,Calm,-,N/A,,Clear,0,2013-07-13 09:35:00
5:55 AM,60.8,57.2,88,30.04,7.0,Calm,Calm,-,N/A,,Clear,0,2013-07-13 09:55:00
6:15 AM,59.0,57.2,94,30.05,10.0,Calm,Calm,-,N/A,,Clear,0,2013-07-13 10:15:00
6:35 AM,59.0,57.2,94,30.06,10.0,NNE,3.5,-,N/A,,Clear,30,2013-07-13 10:35:00
6:55 AM,60.8,57.2,88,30.07,7.0,Calm,Calm,-,N/A,,Clear,0,2013-07-13 10:55:00
7:15 AM,60.8,57.2,88,30.07,7.0,NE,4.6,-,N/A,,Clear,50,2013-07-13 11:15:00
7:35 AM,60.8,59.0,94,30.07,7.0,NE,3.5,-,N/A,,Clear,50,2013-07-13 11:35:00
7:55 AM,60.8,59.0,94,30.07,10.0,NE,4.6,-,N/A,,Clear,50,2013-07-13 11:55:00
8:15 AM,62.6,59.0,88,30.07,10.0,Calm,Calm,-,N/A,,Scattered Clouds,0,2013-07-13 12:15:00
8:35 AM,64.4,59.0,83,30.08,10.0,East,4.6,-,N/A,,Mostly Cloudy,80,2013-07-13 12:35:00
8:55 AM,62.6,59.0,88,30.09,10.0,East,6.9,-,N/A,,Overcast,90,2013-07-13 12:55:00
9:15 AM,64.4,60.8,88,30.09,10.0,East,8.1,-,N/A,,Overcast,90,2013-07-13 13:15:00
9:35 AM,64.4,60.8,88,30.10,10.0,East,6.9,-,N/A,,Overcast,80,2013-07-13 13:35:00
9:55 AM,64.4,60.8,88,30.09,10.0,East,4.6,-,N/A,,Overcast,90,2013-07-13 13:55:00
10:15 AM,68.0,60.8,78,30.10,10.0,ESE,4.6,-,N/A,,Mostly Cloudy,110,2013-07-13 14:15:00
10:35 AM,68.0,62.6,83,30.09,10.0,East,5.8,-,N/A,,Scattered Clouds,90,2013-07-13 14:35:00
10:55 AM,69.8,62.6,78,30.09,10.0,ENE,5.8,-,N/A,,Clear,60,2013-07-13 14:55:00
11:15 AM,69.8,62.6,78,30.10,10.0,NE,3.5,-,N/A,,Scattered Clouds,50,2013-07-13 15:15:00
11:35 AM,71.6,62.6,73,30.09,10.0,Calm,Calm,-,N/A,,Scattered Clouds,0,2013-07-13 15:35:00
11:55 AM,71.6,62.6,73,30.10,10.0,ENE,6.9,-,N/A,,Clear,60,2013-07-13 15:55:00
12:15 PM,73.4,64.4,73,30.10,10.0,East,4.6,-,N/A,,Scattered Clouds,100,2013-07-13 16:15:00
12:35 PM,75.2,62.6,65,30.09,10.0,NE,5.8,-,N/A,,Scattered Clouds,50,2013-07-13 16:35:00
12:55 PM,75.2,62.6,65,30.10,10.0,East,5.8,-,N/A,,Clear,90,2013-07-13 16:55:00
1:15 PM,77.0,62.6,61,30.10,10.0,ESE,5.8,-,N/A,,Scattered Clouds,120,2013-07-13 17:15:00
1:35 PM,78.8,62.6,57,30.10,10.0,East,11.5,-,N/A,,Scattered Clouds,90,2013-07-13 17:35:00
1:55 PM,78.8,64.4,61,30.10,10.0,ESE,9.2,-,N/A,,Clear,110,2013-07-13 17:55:00
2:15 PM,75.2,62.6,65,30.10,10.0,ESE,9.2,-,N/A,,Scattered Clouds,120,2013-07-13 18:15:00
2:35 PM,75.2,62.6,65,30.10,10.0,ESE,5.8,-,N/A,,Scattered Clouds,120,2013-07-13 18:35:00
2:55 PM,75.2,62.6,65,30.10,7.0,Calm,Calm,-,N/A,,Clear,0,2013-07-13 18:55:00
3:15 PM,73.4,64.4,73,30.10,10.0,Calm,Calm,-,N/A,,Mostly Cloudy,0,2013-07-13 19:15:00
3:35 PM,69.8,64.4,83,30.13,5.0,SSW,12.7,21.9,N/A,,Overcast,210,2013-07-13 19:35:00
3:55 PM,66.2,64.4,94,30.13,7.0,ESE,3.5,-,N/A,,Overcast,110,2013-07-13 19:55:00
4:15 PM,66.2,64.4,94,30.11,10.0,ENE,6.9,-,N/A,,Overcast,70,2013-07-13 20:15:00
4:35 PM,68.0,66.2,94,30.09,7.0,North,4.6,-,N/A,,Overcast,10,2013-07-13 20:35:00
4:55 PM,69.8,66.2,88,30.09,10.0,Calm,Calm,-,N/A,,Mostly Cloudy,0,2013-07-13 20:55:00
5:15 PM,71.6,64.4,78,30.08,10.0,Calm,Calm,-,N/A,,Scattered Clouds,0,2013-07-13 21:15:00
5:35 PM,73.4,66.2,78,30.08,10.0,East,4.6,-,N/A,,Scattered Clouds,90,2013-07-13 21:35:00
5:55 PM,73.4,66.2,78,30.09,10.0,East,3.5,-,N/A,,Scattered Clouds,90,2013-07-13 21:55:00
6:15 PM,73.4,66.2,78,30.09,10.0,East,4.6,-,N/A,,Clear,80,2013-07-13 22:15:00
6:35 PM,73.4,66.2,78,30.09,10.0,ESE,3.5,-,N/A,,Clear,110,2013-07-13 22:35:00
6:55 PM,73.4,66.2,78,30.08,10.0,ESE,3.5,-,N/A,,Clear,110,2013-07-13 22:55:00
7:15 PM,75.2,68.0,78,30.08,10.0,East,5.8,-,N/A,,Clear,90,2013-07-13 23:15:00
7:35 PM,75.2,66.2,73,30.09,10.0,East,3.5,-,N/A,,Clear,90,2013-07-13 23:35:00
7:55 PM,73.4,68.0,83,30.08,10.0,Calm,Calm,-,N/A,,Clear,0,2013-07-13 23:55:00
8:15 PM,73.4,68.0,83,30.09,10.0,Calm,Calm,-,N/A,,Clear,0,2013-07-14 00:15:00
8:35 PM,73.4,68.0,83,30.09,10.0,Calm,Calm,-,N/A,,Clear,0,2013-07-14 00:35:00
8:55 PM,73.4,66.2,78,30.09,10.0,Calm,Calm,-,N/A,,Clear,0,2013-07-14 00:55:00
9:15 PM,73.4,64.4,73,30.10,10.0,Calm,Calm,-,N/A,,Clear,0,2013-07-14 01:15:00
9:35 PM,69.8,66.2,88,30.11,10.0,West,3.5,-,N/A,,Scattered Clouds,270,2013-07-14 01:35:00
9:55 PM,69.8,66.2,88,30.12,10.0,Calm,Calm,-,N/A,,Mostly Cloudy,0,2013-07-14 01:55:00
10:15 PM,69.8,66.2,88,30.12,7.0,Calm,Calm,-,N/A,,Mostly Cloudy,0,2013-07-14 02:15:00
10:35 PM,69.8,66.2,88,30.13,10.0,WSW,3.5,-,N/A,,Clear,240,2013-07-14 02:35:00
10:55 PM,69.8,66.2,88,30.13,10.0,Calm,Calm,-,N/A,,Clear,0,2013-07-14 02:55:00
11:15 PM,68.0,66.2,94,30.12,7.0,Calm,Calm,-,N/A,,Clear,0,2013-07-14 03:15:00
11:35 PM,68.0,66.2,94,30.12,7.0,Calm,Calm,-,N/A,,Clear,0,2013-07-14 03:35:00
11:55 PM,68.0,66.2,94,30.12,7.0,Calm,Calm,-,N/A,,Clear,0,2013-07-14 03:55:00